Time;durP1;ratioP1;P1;durP2;ratioP2;P2;SDS_P1;SDS_P2;PMS_P1;PMS_P2;Temp;Humidity;BMP_temperature;BMP_pressure;BME280_temperature;BME280_humidity;BME280_pressure;Samples;Min_cycle;Max_cycle;Signal;HPM_P1;HPM_P2
2022/01/20 00:00:44;;;;;;;21.98;20.63;;;5.10;84.70;;;;;;5035303;28;20213;-72
2022/01/20 00:03:15;;;;;;;21.05;19.85;;;5.00;85.50;;;;;;5035946;28;20655;-72
2022/01/20 00:06:22;;;;;;;21.13;19.92;;;5.00;84.40;;;;;;5035709;28;20201;-72
2022/01/20 00:08:51;;;;;;;22.10;20.90;;;5.00;84.10;;;;;;5035395;28;20204;-72
2022/01/20 00:27:51;;;;;;;20.98;19.77;;;5.00;84.30;;;;;;5035456;28;20196;-72
2022/01/20 00:30:33;;;;;;;20.15;19.05;;;5.10;83.80;;;;;;5035085;28;20217;-72
2022/01/20 00:33:14;;;;;;;21.02;19.63;;;5.00;83.80;;;;;;5035296;28;20667;-71
2022/01/20 00:38:28;;;;;;;20.95;19.75;;;4.80;84.40;;;;;;5035150;28;20200;-72
2022/01/20 00:40:55;;;;;;;20.80;19.60;;;4.90;84.40;;;;;;5034890;28;20311;-72
2022/01/20 00:43:22;;;;;;;22.55;21.15;;;4.90;84.60;;;;;;5035160;28;20197;-72
2022/01/20 00:45:49;;;;;;;20.95;19.75;;;4.90;84.40;;;;;;5034943;28;20280;-72
2022/01/20 00:48:16;;;;;;;20.25;19.25;;;4.80;84.80;;;;;;5033724;28;20197;-71
2022/01/20 00:50:43;;;;;;;20.25;19.15;;;4.90;85.00;;;;;;5034752;28;20239;-72
2022/01/20 00:53:10;;;;;;;20.48;19.35;;;4.90;84.90;;;;;;5034809;28;20201;-72
2022/01/20 00:55:39;;;;;;;20.30;19.20;;;4.90;84.90;;;;;;5034797;28;20255;-72
2022/01/20 00:58:06;;;;;;;20.35;19.25;;;4.90;84.70;;;;;;5034645;28;20686;-72
2022/01/20 01:00:34;;;;;;;19.85;18.75;;;4.90;84.50;;;;;;5034089;28;20229;-72
2022/01/20 01:03:01;;;;;;;19.10;18.10;;;4.90;84.50;;;;;;5034844;28;20203;-72
2022/01/20 01:05:28;;;;;;;19.20;18.30;;;4.90;84.90;;;;;;5034440;28;20197;-72
2022/01/20 01:07:56;;;;;;;20.23;19.13;;;5.00;84.80;;;;;;5034662;28;20251;-72
2022/01/20 01:10:26;;;;;;;19.48;18.38;;;4.90;84.40;;;;;;5034257;28;20224;-71
2022/01/20 01:12:59;;;;;;;18.92;17.92;;;4.90;84.70;;;;;;5034745;28;20284;-72
2022/01/20 01:15:31;;;;;;;19.25;18.25;;;5.00;84.40;;;;;;5034489;28;20548;-72
2022/01/20 01:21:11;;;;;;;19.90;18.80;;;4.90;85.00;;;;;;5034239;28;20228;-72
2022/01/20 01:23:41;;;;;;;19.38;18.27;;;4.90;85.40;;;;;;5034303;28;20208;-72
2022/01/20 01:26:10;;;;;;;18.33;17.38;;;4.90;86.00;;;;;;5034275;28;20669;-72
2022/01/20 01:28:39;;;;;;;30.98;20.08;;;4.90;86.00;;;;;;5034220;28;20632;-72
2022/01/20 01:31:29;;;;;;;19.63;18.38;;;4.90;86.40;;;;;;5033976;28;20222;-72
2022/01/20 01:33:58;;;;;;;18.33;17.42;;;4.80;87.10;;;;;;5034051;28;20235;-72
2022/01/20 01:36:28;;;;;;;19.10;18.00;;;4.70;87.70;;;;;;5034120;28;20198;-72
2022/01/20 01:38:56;;;;;;;18.33;17.33;;;4.80;87.30;;;;;;5034000;28;20197;-72
2022/01/20 01:41:30;;;;;;;18.25;17.25;;;4.60;87.00;;;;;;5033823;28;20225;-72
2022/01/20 01:44:02;;;;;;;18.58;17.58;;;4.60;87.20;;;;;;5033910;28;20197;-72
2022/01/20 01:46:29;;;;;;;18.33;17.33;;;4.70;87.00;;;;;;5033815;28;20205;-72
2022/01/20 01:48:57;;;;;;;18.02;17.13;;;4.70;87.00;;;;;;5033872;28;20198;-72
2022/01/20 01:51:24;;;;;;;18.30;17.40;;;4.70;87.10;;;;;;5033605;28;20216;-72
2022/01/20 01:53:51;;;;;;;18.20;16.92;;;4.70;87.30;;;;;;5033575;28;20205;-72
2022/01/20 01:56:18;;;;;;;17.75;16.85;;;4.60;87.50;;;;;;5033699;28;20284;-72
2022/01/20 01:58:45;;;;;;;17.27;16.35;;;4.60;87.80;;;;;;5033049;28;20693;-72
2022/01/20 02:01:14;;;;;;;18.65;17.65;;;4.60;88.20;;;;;;5032879;28;20578;-72
2022/01/20 02:03:45;;;;;;;18.58;17.60;;;4.50;88.70;;;;;;5033576;28;20200;-72
2022/01/20 02:06:30;;;;;;;17.30;16.30;;;4.40;89.10;;;;;;5033353;28;20292;-72
2022/01/20 02:09:12;;;;;;;18.13;17.13;;;4.50;90.90;;;;;;5033426;28;20205;-72
2022/01/20 02:19:56;;;;;;;18.10;17.00;;;4.60;88.30;;;;;;5033092;28;20267;-72
2022/01/20 02:22:24;;;;;;;17.80;16.90;;;4.60;88.10;;;;;;5033323;28;20702;-72
2022/01/20 02:24:50;;;;;;;17.05;16.25;;;4.60;88.40;;;;;;5033099;28;20287;-72
2022/01/20 02:27:17;;;;;;;17.45;16.55;;;4.60;88.10;;;;;;5033121;28;20198;-72
2022/01/20 02:29:45;;;;;;;17.17;16.27;;;4.50;88.40;;;;;;5032807;28;20221;-72
2022/01/20 02:32:12;;;;;;;18.38;16.90;;;4.50;89.60;;;;;;5033064;28;20201;-72
2022/01/20 02:34:39;;;;;;;17.85;16.95;;;4.50;89.90;;;;;;5032963;28;20197;-72
2022/01/20 02:37:11;;;;;;;62.35;21.27;;;4.50;89.20;;;;;;5032931;28;20623;-72
2022/01/20 02:40:15;;;;;;;57.95;20.45;;;4.50;89.20;;;;;;5032712;28;20368;-72
2022/01/20 02:45:26;;;;;;;17.38;16.58;;;4.60;91.00;;;;;;5032856;28;20304;-72
2022/01/20 02:47:53;;;;;;;17.40;16.30;;;4.60;90.50;;;;;;5032740;28;20197;-72
2022/01/20 02:50:20;;;;;;;18.27;17.27;;;4.60;89.90;;;;;;5032596;28;20643;-72
2022/01/20 02:52:48;;;;;;;18.58;17.52;;;4.60;89.80;;;;;;5032351;28;20292;-72
2022/01/20 02:55:15;;;;;;;17.55;16.65;;;4.60;89.40;;;;;;5032592;28;20289;-72
2022/01/20 02:57:42;;;;;;;17.10;16.30;;;4.60;89.30;;;;;;5032664;28;20201;-72
2022/01/20 03:00:10;;;;;;;17.83;16.92;;;4.70;89.30;;;;;;5032270;28;20255;-71
2022/01/20 03:02:39;;;;;;;17.30;16.50;;;4.70;89.00;;;;;;5032609;28;20224;-72
2022/01/20 03:05:07;;;;;;;17.23;16.33;;;4.80;88.80;;;;;;5032367;28;20228;-71
2022/01/20 03:07:34;;;;;;;17.05;16.25;;;4.70;88.60;;;;;;5032585;28;20197;-72
2022/01/20 03:10:02;;;;;;;16.92;16.13;;;4.70;88.60;;;;;;5031444;28;20221;-71
2022/01/20 03:12:29;;;;;;;18.85;17.20;;;4.70;88.10;;;;;;5032511;28;20280;-72
2022/01/20 03:14:56;;;;;;;16.65;15.85;;;4.70;88.80;;;;;;5032397;28;20667;-72
2022/01/20 03:17:23;;;;;;;17.65;16.75;;;4.70;89.60;;;;;;5032475;28;20223;-72
2022/01/20 03:19:50;;;;;;;18.33;17.42;;;4.70;89.30;;;;;;5032110;28;20225;-71
2022/01/20 03:22:17;;;;;;;17.48;16.42;;;4.80;89.30;;;;;;5032418;28;20651;-71
2022/01/20 03:24:44;;;;;;;17.10;16.30;;;4.80;88.70;;;;;;5032288;28;20674;-72
2022/01/20 03:27:12;;;;;;;18.10;17.20;;;4.80;88.50;;;;;;5032390;28;20204;-72
2022/01/20 03:29:39;;;;;;;16.80;16.00;;;4.80;88.30;;;;;;5032189;28;20304;-71
2022/01/20 03:32:07;;;;;;;16.95;16.15;;;4.80;89.10;;;;;;5032286;28;20189;-72
2022/01/20 03:34:34;;;;;;;17.63;16.70;;;4.90;89.10;;;;;;5032126;28;20197;-71
2022/01/20 03:37:03;;;;;;;19.52;18.13;;;4.90;88.50;;;;;;5032253;28;20297;-72
2022/01/20 03:39:31;;;;;;;1398.25;173.20;;;4.80;89.80;;;;;;5032076;28;20218;-72
2022/01/20 03:41:57;;;;;;;16.63;15.82;;;4.80;89.50;;;;;;5032279;28;20641;-71
2022/01/20 03:44:26;;;;;;;58.80;21.13;;;4.80;93.20;;;;;;5032237;28;20208;-72
2022/01/20 03:46:53;;;;;;;432.40;58.05;;;4.80;91.90;;;;;;5032038;28;20288;-72
2022/01/20 03:49:28;;;;;;;17.00;16.10;;;4.90;91.70;;;;;;5031926;28;20260;-71
2022/01/20 03:51:55;;;;;;;17.35;16.55;;;4.80;94.70;;;;;;5032138;28;20574;-72
2022/01/20 03:54:22;;;;;;;17.35;16.55;;;4.80;94.00;;;;;;5032102;28;20292;-71
2022/01/20 03:56:49;;;;;;;17.80;16.80;;;4.70;92.70;;;;;;5031943;28;20199;-72
2022/01/20 03:59:16;;;;;;;17.80;16.90;;;4.80;91.60;;;;;;5031746;28;20199;-71
2022/01/20 04:01:45;;;;;;;16.98;16.10;;;4.80;90.80;;;;;;5031803;28;20225;-72
2022/01/20 04:04:12;;;;;;;17.63;16.73;;;4.80;90.20;;;;;;5032031;28;20202;-72
2022/01/20 04:06:39;;;;;;;56.95;22.20;;;4.90;89.10;;;;;;5031916;28;20200;-71
2022/01/20 04:09:06;;;;;;;18.45;17.30;;;4.80;90.00;;;;;;5031799;28;20194;-71
2022/01/20 04:11:33;;;;;;;17.55;16.65;;;4.70;89.70;;;;;;5031798;28;20197;-71
2022/01/20 04:14:02;;;;;;;19.05;18.05;;;4.70;89.40;;;;;;5031934;28;20236;-71
2022/01/20 04:16:35;;;;;;;17.88;16.88;;;4.80;89.30;;;;;;5031843;28;20259;-72
2022/01/20 04:19:07;;;;;;;19.42;18.42;;;4.80;89.00;;;;;;5031890;28;20288;-72
2022/01/20 04:21:35;;;;;;;20.80;19.60;;;4.80;89.10;;;;;;5033171;28;20213;-72
2022/01/20 04:24:03;;;;;;;22.05;20.05;;;4.80;89.30;;;;;;5035457;28;20291;-72
2022/01/20 04:26:31;;;;;;;19.83;18.83;;;4.70;89.30;;;;;;5035260;28;20201;-72
2022/01/20 04:28:58;;;;;;;19.75;18.23;;;4.70;89.80;;;;;;5035244;28;20681;-72
2022/01/20 04:31:27;;;;;;;20.83;19.75;;;4.90;88.90;;;;;;5035012;28;20312;-72
2022/01/20 04:33:56;;;;;;;19.65;18.65;;;4.80;88.50;;;;;;5035416;28;20284;-72
2022/01/20 04:36:25;;;;;;;19.23;18.10;;;4.80;88.70;;;;;;5035306;28;20587;-72
2022/01/20 04:38:52;;;;;;;18.50;17.50;;;4.80;88.50;;;;;;5035078;28;20291;-72
2022/01/20 04:41:20;;;;;;;18.35;17.45;;;4.80;88.60;;;;;;5034717;28;20223;-72
2022/01/20 04:43:47;;;;;;;18.83;17.92;;;4.80;88.60;;;;;;5034995;28;20729;-72
2022/01/20 04:46:22;;;;;;;21.30;20.08;;;4.90;88.40;;;;;;5034976;28;20634;-72
2022/01/20 04:49:04;;;;;;;19.73;18.45;;;4.90;88.40;;;;;;5035029;28;20204;-72
2022/01/20 04:57:07;;;;;;;19.33;18.23;;;5.00;88.60;;;;;;5035054;28;20196;-71
2022/01/20 04:59:35;;;;;;;19.50;18.50;;;5.00;89.10;;;;;;5034379;28;20267;-72
2022/01/20 05:02:02;;;;;;;20.02;18.30;;;5.00;89.20;;;;;;5034710;28;20221;-72
2022/01/20 05:04:28;;;;;;;20.63;19.42;;;5.00;89.20;;;;;;5034693;28;20197;-71
2022/01/20 05:06:58;;;;;;;19.02;18.02;;;5.00;89.30;;;;;;5034356;28;20240;-72
2022/01/20 05:09:25;;;;;;;20.33;19.23;;;4.90;89.20;;;;;;5034370;28;20532;-72
2022/01/20 05:11:59;;;;;;;19.85;18.85;;;4.90;89.20;;;;;;5034628;28;20259;-72
2022/01/20 05:14:27;;;;;;;19.02;18.08;;;4.80;89.60;;;;;;5034441;28;20708;-71
2022/01/20 05:16:55;;;;;;;19.15;18.15;;;4.90;90.00;;;;;;5034397;28;20193;-72
2022/01/20 05:19:22;;;;;;;18.80;17.80;;;4.90;89.50;;;;;;5034198;28;20733;-72
2022/01/20 05:21:49;;;;;;;19.40;18.42;;;4.80;89.90;;;;;;5034217;28;20225;-72
2022/01/20 05:24:18;;;;;;;18.00;17.10;;;4.80;90.40;;;;;;5034297;28;20193;-72
2022/01/20 05:26:46;;;;;;;19.60;18.50;;;4.80;90.00;;;;;;5034195;28;20197;-72
2022/01/20 05:29:13;;;;;;;18.77;17.88;;;4.80;89.70;;;;;;5034011;28;20200;-72
2022/01/20 05:31:40;;;;;;;19.00;17.90;;;4.80;89.90;;;;;;5034095;28;20204;-72
2022/01/20 05:34:07;;;;;;;20.65;19.55;;;4.70;90.00;;;;;;5033341;28;20197;-72
2022/01/20 05:36:34;;;;;;;19.80;18.70;;;4.70;90.60;;;;;;5034025;28;20232;-72
2022/01/20 05:39:01;;;;;;;21.00;19.90;;;4.70;91.20;;;;;;5034050;28;20280;-72
2022/01/20 05:41:29;;;;;;;20.85;19.65;;;4.70;90.90;;;;;;5033721;28;20724;-72
2022/01/20 05:43:57;;;;;;;20.25;18.90;;;4.80;90.50;;;;;;5033846;28;20197;-72
2022/01/20 05:46:26;;;;;;;18.75;17.77;;;4.80;90.30;;;;;;5033956;28;20572;-72
2022/01/20 05:48:57;;;;;;;18.25;17.10;;;4.60;90.40;;;;;;5033859;28;20251;-72
2022/01/20 05:51:24;;;;;;;18.60;17.70;;;4.60;90.70;;;;;;5033853;28;20253;-72
2022/01/20 05:53:51;;;;;;;19.02;18.02;;;4.60;90.80;;;;;;5033503;28;20215;-71
2022/01/20 05:56:18;;;;;;;18.38;16.63;;;4.60;90.90;;;;;;5033688;28;20208;-71
2022/01/20 05:58:46;;;;;;;19.05;17.95;;;4.70;91.20;;;;;;5033531;28;20193;-72
2022/01/20 06:01:13;;;;;;;19.80;18.70;;;4.60;91.00;;;;;;5033211;28;20709;-71
2022/01/20 06:03:40;;;;;;;19.88;18.70;;;4.60;91.20;;;;;;5033458;28;20227;-72
2022/01/20 06:06:08;;;;;;;20.25;19.25;;;4.60;90.90;;;;;;5033405;28;20252;-71
2022/01/20 06:08:37;;;;;;;18.35;17.35;;;4.60;90.70;;;;;;5033391;28;20551;-71
2022/01/20 06:11:04;;;;;;;18.65;17.55;;;4.60;91.80;;;;;;5033155;28;20235;-72
2022/01/20 06:13:32;;;;;;;19.13;17.92;;;4.50;91.80;;;;;;5033325;28;20670;-72
2022/01/20 06:16:01;;;;;;;19.45;18.35;;;4.60;90.60;;;;;;5033370;28;20205;-72
2022/01/20 06:18:27;;;;;;;19.08;17.88;;;4.50;90.50;;;;;;5033181;28;20199;-72
2022/01/20 06:20:54;;;;;;;19.38;17.92;;;4.50;90.80;;;;;;5032897;28;20228;-71
2022/01/20 06:23:22;;;;;;;18.73;17.67;;;4.40;90.90;;;;;;5033010;28;20249;-72
2022/01/20 06:25:49;;;;;;;19.98;18.77;;;4.40;91.60;;;;;;5033057;28;20564;-72
2022/01/20 06:28:17;;;;;;;19.80;18.70;;;4.50;91.30;;;;;;5033279;28;20288;-71
2022/01/20 06:30:44;;;;;;;17.70;16.70;;;4.40;91.60;;;;;;5032835;28;20663;-71
2022/01/20 06:33:13;;;;;;;19.42;18.52;;;4.40;91.50;;;;;;5033109;28;20194;-71
2022/01/20 06:35:40;;;;;;;20.20;19.00;;;4.40;91.40;;;;;;5033052;28;20204;-71
2022/01/20 06:38:07;;;;;;;20.27;19.17;;;4.40;91.30;;;;;;5033015;28;20212;-71
2022/01/20 06:40:34;;;;;;;19.88;18.60;;;4.50;91.00;;;;;;5032752;28;20311;-71
2022/01/20 06:43:02;;;;;;;20.98;19.45;;;4.50;91.10;;;;;;5032768;28;20221;-71
2022/01/20 06:45:29;;;;;;;159.23;31.40;;;4.60;91.10;;;;;;5032785;28;20205;-71
2022/01/20 06:47:56;;;;;;;17.50;16.42;;;4.70;90.70;;;;;;5032888;28;20227;-71
2022/01/20 06:50:25;;;;;;;20.83;19.63;;;4.60;92.40;;;;;;5032778;28;20299;-72
2022/01/20 06:52:52;;;;;;;20.02;18.92;;;4.60;91.50;;;;;;5032608;28;20231;-72
2022/01/20 06:55:20;;;;;;;21.00;19.90;;;4.60;90.50;;;;;;5032795;28;20555;-72
2022/01/20 06:57:47;;;;;;;21.35;20.25;;;4.60;90.30;;;;;;5032614;28;20671;-72
2022/01/20 07:00:16;;;;;;;19.85;18.75;;;4.60;90.50;;;;;;5032212;28;20236;-72
2022/01/20 07:02:44;;;;;;;21.80;20.50;;;4.60;90.80;;;;;;5032528;28;20611;-72
2022/01/20 07:05:12;;;;;;;21.23;19.92;;;4.60;91.00;;;;;;5032646;28;20620;-72
2022/01/20 07:07:41;;;;;;;21.50;20.30;;;4.50;91.90;;;;;;5032481;28;20204;-72
2022/01/20 07:10:10;;;;;;;20.25;18.70;;;4.60;90.90;;;;;;5032277;28;20729;-72
2022/01/20 07:12:37;;;;;;;19.63;18.52;;;4.50;91.10;;;;;;5032638;28;20197;-72
2022/01/20 07:15:05;;;;;;;19.67;18.58;;;4.40;91.70;;;;;;5032720;28;20328;-72
2022/01/20 07:17:32;;;;;;;22.27;20.27;;;4.40;92.10;;;;;;5032451;28;20284;-71
2022/01/20 07:19:59;;;;;;;18.38;17.48;;;4.30;91.40;;;;;;5032251;28;20223;-72
2022/01/20 07:22:26;;;;;;;21.10;19.85;;;4.20;92.60;;;;;;5032423;28;20249;-72
2022/01/20 07:24:54;;;;;;;20.90;19.38;;;4.10;92.20;;;;;;5032464;28;20292;-72
2022/01/20 07:27:21;;;;;;;21.40;20.25;;;4.10;91.80;;;;;;5032625;28;20228;-72
2022/01/20 07:29:48;;;;;;;20.40;19.30;;;4.00;91.70;;;;;;5032022;28;20699;-71
2022/01/20 07:32:15;;;;;;;20.00;18.67;;;4.10;91.90;;;;;;5032319;28;20570;-72
2022/01/20 07:34:42;;;;;;;19.48;18.38;;;4.00;91.50;;;;;;5032356;28;20251;-72
2022/01/20 07:37:09;;;;;;;20.95;19.48;;;4.00;92.30;;;;;;5032269;28;20207;-72
2022/01/20 07:39:36;;;;;;;20.02;18.63;;;4.10;91.60;;;;;;5032085;28;20308;-72
2022/01/20 07:42:05;;;;;;;22.52;20.77;;;4.10;90.90;;;;;;5032369;28;20285;-72
2022/01/20 07:44:32;;;;;;;22.85;21.48;;;4.10;90.60;;;;;;5032122;28;20198;-72
2022/01/20 07:46:58;;;;;;;21.52;20.30;;;4.10;90.20;;;;;;5032243;28;20197;-72
2022/01/20 07:49:27;;;;;;;20.88;19.65;;;4.10;90.10;;;;;;5032237;28;20217;-72
2022/01/20 07:51:54;;;;;;;19.00;17.98;;;4.10;89.80;;;;;;5032014;28;20209;-72
2022/01/20 07:54:21;;;;;;;22.40;21.10;;;4.10;89.90;;;;;;5032248;28;20197;-71
2022/01/20 07:56:49;;;;;;;21.80;20.45;;;4.10;91.10;;;;;;5034073;28;20558;-71
2022/01/20 07:59:17;;;;;;;21.77;20.33;;;4.20;90.70;;;;;;5035875;28;20185;-71
2022/01/20 08:01:44;;;;;;;21.27;19.65;;;4.20;92.50;;;;;;5035636;28;20693;-71
2022/01/20 08:04:11;;;;;;;21.38;19.83;;;4.20;91.70;;;;;;5035682;28;20217;-71
2022/01/20 08:06:38;;;;;;;22.48;21.00;;;4.30;90.50;;;;;;5035682;28;20207;-72
2022/01/20 08:09:05;;;;;;;23.05;21.75;;;4.40;90.00;;;;;;5035572;28;20567;-72
2022/01/20 08:11:32;;;;;;;21.80;20.45;;;4.40;89.10;;;;;;5035685;28;20568;-71
2022/01/20 08:13:59;;;;;;;22.17;20.48;;;4.50;88.10;;;;;;5035827;28;20276;-72
2022/01/20 08:16:27;;;;;;;23.35;21.80;;;4.40;88.10;;;;;;5035711;28;20627;-72
2022/01/20 08:18:54;;;;;;;21.60;19.80;;;4.50;87.90;;;;;;5035621;28;20232;-72
2022/01/20 08:21:21;;;;;;;24.23;22.42;;;4.70;87.10;;;;;;5035394;28;20713;-71
2022/01/20 08:23:48;;;;;;;20.90;19.50;;;4.80;87.30;;;;;;5035800;28;20227;-71
2022/01/20 08:26:15;;;;;;;22.75;21.13;;;4.90;86.70;;;;;;5035485;28;20566;-71
2022/01/20 08:28:42;;;;;;;21.23;19.77;;;5.00;85.60;;;;;;5035497;28;20296;-71
2022/01/20 08:31:10;;;;;;;21.60;20.20;;;5.00;85.40;;;;;;5035298;28;20224;-71
2022/01/20 08:33:38;;;;;;;23.70;21.73;;;5.10;85.40;;;;;;5035377;28;20598;-71
2022/01/20 08:36:06;;;;;;;22.35;20.67;;;5.20;84.70;;;;;;5035305;28;20574;-71
2022/01/20 08:38:33;;;;;;;23.65;21.80;;;5.20;84.20;;;;;;5035149;28;20545;-71
2022/01/20 08:41:00;;;;;;;22.75;21.45;;;5.10;84.20;;;;;;5034945;28;20245;-71
2022/01/20 08:43:27;;;;;;;22.33;20.90;;;5.20;83.50;;;;;;5035071;28;20217;-71
2022/01/20 08:45:54;;;;;;;22.58;21.15;;;5.20;84.20;;;;;;5035251;28;20232;-71
2022/01/20 08:48:21;;;;;;;22.33;20.70;;;5.20;83.80;;;;;;5035091;28;20602;-71
2022/01/20 08:50:49;;;;;;;23.42;21.42;;;5.20;83.80;;;;;;5034812;28;20223;-71
2022/01/20 08:53:16;;;;;;;23.95;22.35;;;5.20;83.80;;;;;;5034861;28;20201;-71
2022/01/20 08:55:43;;;;;;;21.60;20.17;;;5.20;83.60;;;;;;5034937;28;20193;-71
2022/01/20 08:58:10;;;;;;;22.17;20.70;;;5.30;83.20;;;;;;5035088;28;20732;-71
2022/01/20 09:00:37;;;;;;;23.40;21.42;;;5.40;82.50;;;;;;5034475;28;20219;-71
2022/01/20 09:03:05;;;;;;;22.80;21.13;;;5.40;82.60;;;;;;5034740;28;20311;-72
2022/01/20 09:05:32;;;;;;;24.30;22.70;;;5.40;83.00;;;;;;5034652;28;20263;-71
2022/01/20 09:08:01;;;;;;;23.17;21.55;;;5.40;82.60;;;;;;5033489;28;20204;-71
2022/01/20 09:10:36;;;;;;;25.40;23.77;;;5.40;81.90;;;;;;5034388;28;20219;-71
2022/01/20 09:15:48;;;;;;;24.08;22.35;;;5.50;81.90;;;;;;5034645;28;20235;-72
2022/01/20 09:18:18;;;;;;;24.27;22.42;;;5.60;82.00;;;;;;5034373;28;20293;-71
2022/01/20 09:20:45;;;;;;;24.58;22.85;;;5.70;81.50;;;;;;5034216;28;20225;-71
2022/01/20 09:23:13;;;;;;;22.92;21.30;;;5.80;81.20;;;;;;5034320;28;20316;-72
2022/01/20 09:25:42;;;;;;;23.13;21.52;;;5.80;81.50;;;;;;5034457;28;20283;-72
2022/01/20 09:28:09;;;;;;;23.48;21.85;;;5.90;81.40;;;;;;5034250;28;20201;-72
2022/01/20 09:30:40;;;;;;;22.67;21.23;;;5.90;80.30;;;;;;5034085;28;20256;-72
2022/01/20 09:33:12;;;;;;;23.08;21.67;;;6.10;79.60;;;;;;5034056;28;20659;-72
2022/01/20 09:35:41;;;;;;;25.70;23.95;;;6.20;79.30;;;;;;5034355;28;20202;-72
2022/01/20 09:38:08;;;;;;;23.90;22.00;;;6.20;79.20;;;;;;5033960;28;20676;-71
2022/01/20 09:40:38;;;;;;;24.90;22.77;;;6.30;79.60;;;;;;5033825;28;20224;-72
2022/01/20 09:43:06;;;;;;;24.23;22.77;;;6.30;79.10;;;;;;5033831;28;20217;-72
2022/01/20 09:45:34;;;;;;;24.20;22.27;;;6.30;79.90;;;;;;5033840;28;20204;-72
2022/01/20 09:48:01;;;;;;;24.05;22.08;;;6.30;78.80;;;;;;5034010;28;20194;-72
2022/01/20 09:50:29;;;;;;;24.73;23.08;;;6.30;78.30;;;;;;5033546;28;20220;-72
2022/01/20 09:52:59;;;;;;;24.48;22.42;;;6.30;80.00;;;;;;5033761;28;20217;-72
2022/01/20 09:55:27;;;;;;;24.20;22.20;;;6.20;81.20;;;;;;5033800;28;20193;-72
2022/01/20 09:57:55;;;;;;;24.13;22.42;;;6.30;79.10;;;;;;5033557;28;20606;-72
2022/01/20 10:00:23;;;;;;;24.58;22.70;;;6.30;79.30;;;;;;5033309;28;20260;-72
2022/01/20 10:02:56;;;;;;;23.60;22.10;;;6.40;79.40;;;;;;5033599;28;20239;-72
2022/01/20 10:05:33;;;;;;;24.77;23.10;;;6.60;78.40;;;;;;5033544;28;20741;-72
2022/01/20 10:08:10;;;;;;;22.77;21.25;;;6.60;77.60;;;;;;5033542;28;20219;-72
2022/01/20 10:10:48;;;;;;;24.85;23.35;;;6.60;77.20;;;;;;5033298;28;20221;-71
2022/01/20 10:13:19;;;;;;;25.23;23.23;;;6.60;77.80;;;;;;5033570;28;20288;-72
2022/01/20 10:15:57;;;;;;;24.63;22.92;;;6.50;77.80;;;;;;5033399;28;20205;-72
2022/01/20 10:18:24;;;;;;;24.88;22.77;;;6.40;77.50;;;;;;5033455;28;20207;-72
2022/01/20 10:20:53;;;;;;;25.10;23.00;;;6.40;77.70;;;;;;5032580;28;20224;-71
2022/01/20 10:23:36;;;;;;;24.42;22.63;;;6.40;77.70;;;;;;5033128;28;20239;-72
2022/01/20 10:26:15;;;;;;;24.38;22.58;;;6.30;77.40;;;;;;5033301;28;20200;-72
2022/01/20 10:29:03;;;;;;;23.05;21.25;;;6.30;77.60;;;;;;5033180;28;20551;-71
2022/01/20 10:31:37;;;;;;;25.02;23.13;;;6.10;77.90;;;;;;5032855;28;20201;-71
2022/01/20 10:34:06;;;;;;;23.40;21.70;;;6.00;78.20;;;;;;5033152;28;20223;-72
2022/01/20 10:36:38;;;;;;;24.05;22.23;;;6.10;80.10;;;;;;5033040;28;20252;-72
2022/01/20 10:39:05;;;;;;;23.17;21.58;;;6.20;77.70;;;;;;5032798;28;20733;-72
2022/01/20 10:41:34;;;;;;;24.92;23.20;;;6.20;77.50;;;;;;5032886;28;20204;-71
2022/01/20 10:44:10;;;;;;;24.20;22.55;;;6.10;77.00;;;;;;5032653;28;20614;-72
2022/01/20 10:46:48;;;;;;;24.05;22.23;;;6.20;77.00;;;;;;5032860;28;20628;-72
2022/01/20 10:49:16;;;;;;;24.92;22.92;;;5.90;76.90;;;;;;5032702;28;20655;-72
2022/01/20 10:51:44;;;;;;;24.02;22.40;;;5.90;78.00;;;;;;5032874;28;20193;-72
2022/01/20 10:54:14;;;;;;;25.08;23.17;;;5.90;76.90;;;;;;5032791;28;20198;-71
2022/01/20 10:56:50;;;;;;;23.92;22.23;;;5.80;77.80;;;;;;5032766;28;20204;-72
2022/01/20 10:59:19;;;;;;;24.20;22.60;;;5.90;77.50;;;;;;5032468;28;20737;-71
2022/01/20 11:01:59;;;;;;;24.48;22.55;;;6.00;78.50;;;;;;5032378;28;20671;-72
2022/01/20 11:04:26;;;;;;;24.50;22.80;;;6.20;77.20;;;;;;5032485;28;20703;-72
2022/01/20 11:06:55;;;;;;;24.55;22.73;;;6.20;76.60;;;;;;5032398;28;20211;-72
2022/01/20 11:09:24;;;;;;;24.67;23.17;;;6.20;77.30;;;;;;5032322;28;20702;-71
2022/01/20 11:11:52;;;;;;;24.92;23.10;;;6.10;76.60;;;;;;5032626;28;20636;-72
2022/01/20 11:14:20;;;;;;;23.85;21.92;;;6.10;77.20;;;;;;5032576;28;20231;-72
2022/01/20 11:16:48;;;;;;;25.67;23.92;;;6.20;76.80;;;;;;5032632;28;20203;-71
2022/01/20 11:19:16;;;;;;;24.63;22.90;;;6.20;77.20;;;;;;5032095;28;20215;-71
2022/01/20 11:21:45;;;;;;;23.65;21.95;;;5.80;77.90;;;;;;5032370;28;20288;-72
2022/01/20 11:24:22;;;;;;;23.80;22.13;;;5.90;78.10;;;;;;5032304;28;20221;-72
2022/01/20 11:26:55;;;;;;;24.58;22.88;;;5.80;78.40;;;;;;5032522;28;20960;-72
2022/01/20 11:29:25;;;;;;;24.40;22.67;;;5.70;79.90;;;;;;5032262;28;20204;-72
2022/01/20 11:31:53;;;;;;;25.27;23.17;;;5.90;78.60;;;;;;5034305;28;20690;-72
2022/01/20 11:34:23;;;;;;;24.33;22.73;;;6.00;78.30;;;;;;5036567;28;20197;-72
2022/01/20 11:36:50;;;;;;;26.90;25.10;;;6.10;77.40;;;;;;5036362;28;20670;-72
2022/01/20 11:39:20;;;;;;;23.92;22.42;;;6.20;77.60;;;;;;5036070;28;20213;-72
2022/01/20 11:41:49;;;;;;;26.33;24.48;;;6.20;77.10;;;;;;5036272;28;20201;-72
2022/01/20 11:44:17;;;;;;;23.85;22.13;;;6.30;77.20;;;;;;5036168;28;20221;-72
2022/01/20 11:46:48;;;;;;;25.10;23.23;;;6.40;75.90;;;;;;5036341;28;20205;-72
2022/01/20 11:49:16;;;;;;;23.85;22.45;;;6.30;75.70;;;;;;5035969;28;20201;-72
2022/01/20 11:51:47;;;;;;;23.95;22.65;;;6.40;75.60;;;;;;5036009;28;20197;-73
2022/01/20 11:54:17;;;;;;;24.33;22.33;;;6.40;75.80;;;;;;5036125;28;20189;-73
2022/01/20 11:56:45;;;;;;;22.75;21.10;;;6.50;76.10;;;;;;5035984;28;20197;-73
2022/01/20 11:59:14;;;;;;;22.73;21.13;;;6.70;75.90;;;;;;5035673;28;20207;-73
2022/01/20 12:01:48;;;;;;;22.52;20.90;;;6.80;75.10;;;;;;5035608;28;20766;-73
2022/01/20 12:04:15;;;;;;;23.85;22.35;;;6.80;74.90;;;;;;5035713;28;20707;-73
2022/01/20 12:06:45;;;;;;;22.98;21.30;;;6.80;74.40;;;;;;5035910;28;20197;-73
2022/01/20 12:09:14;;;;;;;23.73;22.15;;;6.80;73.20;;;;;;5035498;28;20201;-72
2022/01/20 12:11:45;;;;;;;23.73;22.25;;;6.70;73.80;;;;;;5035723;28;20284;-72
2022/01/20 12:14:12;;;;;;;23.83;22.48;;;6.60;74.30;;;;;;5035774;28;20521;-73
2022/01/20 12:16:40;;;;;;;23.50;21.77;;;6.60;74.20;;;;;;5035730;28;20666;-73
2022/01/20 12:19:11;;;;;;;25.45;23.90;;;6.60;73.30;;;;;;5035442;28;20206;-72
2022/01/20 12:21:46;;;;;;;23.02;21.55;;;6.40;74.40;;;;;;5035604;28;20291;-73
2022/01/20 12:24:13;;;;;;;22.45;21.02;;;6.50;74.10;;;;;;5035389;28;20213;-72
2022/01/20 12:26:40;;;;;;;25.65;23.98;;;6.30;74.20;;;;;;5035446;28;20197;-73
2022/01/20 12:29:10;;;;;;;22.38;20.95;;;6.20;74.90;;;;;;5035220;28;20675;-73
2022/01/20 12:31:47;;;;;;;24.30;22.90;;;6.00;75.20;;;;;;5035374;28;20193;-73
2022/01/20 12:34:15;;;;;;;21.75;20.40;;;5.80;75.50;;;;;;5035202;28;20204;-73
2022/01/20 12:36:50;;;;;;;22.27;21.02;;;4.90;78.10;;;;;;5035237;28;20659;-72
2022/01/20 12:39:23;;;;;;;21.63;20.48;;;4.30;81.80;;;;;;5035021;28;20288;-72
2022/01/20 12:41:55;;;;;;;22.25;21.15;;;4.00;83.90;;;;;;5035206;28;20622;-73
2022/01/20 12:44:23;;;;;;;20.50;19.40;;;3.70;85.30;;;;;;5035028;28;20221;-73
2022/01/20 12:46:50;;;;;;;23.23;22.02;;;3.50;87.10;;;;;;5034980;28;20201;-73
2022/01/20 12:49:20;;;;;;;21.80;20.67;;;2.90;89.20;;;;;;5034798;28;20292;-72
2022/01/20 12:51:50;;;;;;;24.98;23.27;;;2.90;90.20;;;;;;5034894;28;20240;-72
2022/01/20 12:54:18;;;;;;;22.80;21.20;;;2.50;91.20;;;;;;5035013;28;20208;-72
2022/01/20 12:56:47;;;;;;;25.58;23.40;;;2.50;91.90;;;;;;5035091;28;20194;-72
2022/01/20 12:59:21;;;;;;;23.85;22.13;;;2.70;91.70;;;;;;5034546;28;20248;-72
2022/01/20 13:01:49;;;;;;;22.48;21.17;;;2.80;91.90;;;;;;5034579;28;20682;-72
2022/01/20 13:04:18;;;;;;;25.75;23.30;;;2.90;91.70;;;;;;5034585;28;20626;-73
2022/01/20 13:06:53;;;;;;;25.90;23.90;;;3.10;90.10;;;;;;5034520;28;20288;-72
2022/01/20 13:09:24;;;;;;;24.80;23.20;;;3.20;88.40;;;;;;5034504;28;20201;-72
2022/01/20 13:11:57;;;;;;;24.02;22.30;;;3.00;88.20;;;;;;5034648;28;20197;-72
2022/01/20 13:14:35;;;;;;;27.10;25.02;;;3.00;89.40;;;;;;5034614;28;20201;-72
2022/01/20 13:17:02;;;;;;;25.85;24.05;;;3.00;88.90;;;;;;5034667;28;20197;-73
2022/01/20 13:19:35;;;;;;;26.23;24.60;;;2.90;88.90;;;;;;5034361;28;20223;-73
2022/01/20 13:22:05;;;;;;;22.58;21.10;;;3.00;88.10;;;;;;5034576;28;20201;-73
2022/01/20 13:24:34;;;;;;;25.38;23.67;;;3.10;88.70;;;;;;5034272;28;20283;-72
2022/01/20 13:27:03;;;;;;;23.65;22.05;;;3.30;88.70;;;;;;5034360;28;20235;-72